createdAt,value
2019-03-27T00:00:38.994Z,4.70
2019-03-27T00:03:08.312Z,4.73
2019-03-27T00:05:37.635Z,4.75
2019-03-27T00:08:07.039Z,4.74
2019-03-27T00:10:37.115Z,4.80
2019-03-27T00:13:09.255Z,4.80
2019-03-27T00:15:38.477Z,4.68
2019-03-27T00:18:07.812Z,4.69
2019-03-27T00:20:37.103Z,4.76
2019-03-27T00:23:06.671Z,4.68
2019-03-27T00:25:36.220Z,4.60
2019-03-27T00:28:06.226Z,4.64
2019-03-27T00:30:35.457Z,4.60
2019-03-27T00:33:04.730Z,4.58
2019-03-27T00:35:34.200Z,4.57
2019-03-27T00:38:03.720Z,4.55
2019-03-27T00:40:33.018Z,4.54
2019-03-27T00:43:02.397Z,4.51
2019-03-27T00:45:31.714Z,4.48
2019-03-27T00:48:01.322Z,4.49
2019-03-27T00:50:30.903Z,4.52
2019-03-27T00:53:02.994Z,4.59
2019-03-27T00:55:31.425Z,4.46
2019-03-27T00:58:00.693Z,4.54
2019-03-27T01:00:51.695Z,4.52
2019-03-27T01:03:21.273Z,4.48
2019-03-27T01:05:50.532Z,4.37
2019-03-27T01:08:19.781Z,4.33
2019-03-27T01:10:49.002Z,4.22
2019-03-27T01:13:18.533Z,4.20
2019-03-27T01:15:47.781Z,4.23
2019-03-27T01:18:16.994Z,4.30
2019-03-27T01:20:46.461Z,4.28
2019-03-27T01:23:15.693Z,4.32
2019-03-27T01:25:45.156Z,4.28
2019-03-27T01:28:14.378Z,4.23
2019-03-27T01:30:43.609Z,4.24
2019-03-27T01:33:13.110Z,4.25
2019-03-27T01:35:42.433Z,4.37
2019-03-27T01:38:11.652Z,4.22
2019-03-27T01:40:40.994Z,4.19
2019-03-27T01:43:10.218Z,4.19
2019-03-27T01:45:52.172Z,4.25
2019-03-27T01:48:10.758Z,4.21
2019-03-27T01:50:40.490Z,4.26
2019-03-27T01:53:09.724Z,4.23
2019-03-27T01:55:38.947Z,4.21
2019-03-27T01:58:08.413Z,4.20
2019-03-27T02:00:37.742Z,4.27
2019-03-27T02:03:07.178Z,4.27
2019-03-27T02:05:36.391Z,4.26
2019-03-27T02:08:05.726Z,4.29
2019-03-27T02:10:34.992Z,4.27
2019-03-27T02:13:04.438Z,4.32
2019-03-27T02:15:33.758Z,4.31
2019-03-27T02:18:04.265Z,4.32
2019-03-27T02:20:33.766Z,4.34
2019-03-27T02:23:03.314Z,4.27
2019-03-27T02:25:32.853Z,4.22
2019-03-27T02:28:02.087Z,4.27
2019-03-27T02:30:31.299Z,4.20
2019-03-27T02:33:00.534Z,4.26
2019-03-27T02:35:30.103Z,4.22
2019-03-27T02:37:59.324Z,4.23
2019-03-27T02:40:29.520Z,4.28
2019-03-27T02:42:58.779Z,4.35
2019-03-27T02:45:28.013Z,4.32
2019-03-27T02:47:57.481Z,4.28
2019-03-27T02:50:27.303Z,4.25
2019-03-27T02:52:56.761Z,4.22
2019-03-27T02:55:25.994Z,4.17
2019-03-27T02:57:55.556Z,4.21
2019-03-27T03:00:25.099Z,4.13
2019-03-27T03:02:54.347Z,4.15
2019-03-27T03:05:23.639Z,4.18
2019-03-27T03:07:53.152Z,4.19
2019-03-27T03:10:22.618Z,4.16
2019-03-27T03:12:51.852Z,4.09
2019-03-27T03:15:23.080Z,4.03
2019-03-27T03:17:52.671Z,3.98
2019-03-27T03:20:22.323Z,3.98
2019-03-27T03:22:51.819Z,4.06
2019-03-27T03:25:21.081Z,3.96
2019-03-27T03:27:50.559Z,3.99
2019-03-27T03:30:19.946Z,4.07
2019-03-27T03:32:49.248Z,4.12
2019-03-27T03:35:18.511Z,4.15
2019-03-27T03:37:49.126Z,4.15
2019-03-27T03:40:18.626Z,4.23
2019-03-27T03:42:47.958Z,4.05
2019-03-27T03:45:17.437Z,4.24
2019-03-27T03:47:46.966Z,4.21
2019-03-27T03:50:40.160Z,4.11
2019-03-27T03:53:11.671Z,4.15
2019-03-27T03:55:41.998Z,4.10
2019-03-27T03:58:13.782Z,4.06
2019-03-27T04:00:43.285Z,4.07
2019-03-27T04:03:13.197Z,4.21
2019-03-27T04:05:42.690Z,4.10
2019-03-27T04:08:12.230Z,4.08
2019-03-27T04:10:41.758Z,4.09
2019-03-27T04:13:10.990Z,4.06
2019-03-27T04:15:40.498Z,4.14
2019-03-27T04:18:10.308Z,4.17
2019-03-27T04:20:39.532Z,4.18
2019-03-27T04:23:08.737Z,4.06
2019-03-27T04:26:07.318Z,4.07
2019-03-27T04:28:09.169Z,4.07
2019-03-27T04:30:38.430Z,4.00
2019-03-27T04:33:07.646Z,4.00
2019-03-27T04:35:37.221Z,4.03
2019-03-27T04:38:06.433Z,3.99
2019-03-27T04:40:35.673Z,3.98
2019-03-27T04:43:04.904Z,3.94
2019-03-27T04:45:34.381Z,3.93
2019-03-27T04:48:03.860Z,3.89
2019-03-27T04:50:33.614Z,3.94
2019-03-27T04:53:03.093Z,3.94
2019-03-27T04:55:32.400Z,3.93
2019-03-27T04:58:01.612Z,3.92
2019-03-27T05:00:30.891Z,3.91
2019-03-27T05:03:02.215Z,3.94
2019-03-27T05:05:31.698Z,3.91
2019-03-27T05:08:00.909Z,3.91
2019-03-27T05:10:30.399Z,3.92
2019-03-27T05:13:00.157Z,3.98
2019-03-27T05:15:29.675Z,3.96
2019-03-27T05:17:59.158Z,3.94
2019-03-27T05:20:28.910Z,3.98
2019-03-27T05:22:58.458Z,4.00
2019-03-27T05:25:27.693Z,4.03
2019-03-27T05:27:56.915Z,4.01
2019-03-27T05:30:29.655Z,4.05
2019-03-27T05:32:59.161Z,4.07
2019-03-27T05:35:28.754Z,4.08
2019-03-27T05:37:58.286Z,4.06
2019-03-27T05:40:27.654Z,4.08
2019-03-27T05:43:00.820Z,4.09
2019-03-27T05:45:28.405Z,4.11
2019-03-27T05:47:59.704Z,4.13
2019-03-27T05:50:28.573Z,4.19
2019-03-27T05:52:58.113Z,4.19
2019-03-27T05:55:27.617Z,4.18
2019-03-27T05:57:57.157Z,4.21
2019-03-27T06:00:26.427Z,4.26
2019-03-27T06:02:55.641Z,4.26
2019-03-27T06:05:25.277Z,4.27
2019-03-27T06:07:56.033Z,4.32
2019-03-27T06:10:25.201Z,4.31
2019-03-27T06:12:54.511Z,4.38
2019-03-27T06:15:23.901Z,4.41
2019-03-27T06:17:53.191Z,4.50
2019-03-27T06:20:23.008Z,4.56
2019-03-27T06:22:52.247Z,4.56
2019-03-27T06:25:21.504Z,4.53
2019-03-27T06:27:51.006Z,4.51
2019-03-27T06:30:22.609Z,4.53
2019-03-27T06:32:51.853Z,4.62
2019-03-27T06:35:21.056Z,4.59
2019-03-27T06:37:50.564Z,4.47
2019-03-27T06:40:20.079Z,4.43
2019-03-27T06:42:49.348Z,4.41
2019-03-27T06:45:18.652Z,4.36
2019-03-27T06:47:48.179Z,4.35
2019-03-27T06:50:17.591Z,4.36
2019-03-27T06:52:46.817Z,4.36
2019-03-27T06:55:16.488Z,4.38
2019-03-27T06:57:45.704Z,4.38
2019-03-27T07:00:15.899Z,4.37
2019-03-27T07:02:45.429Z,4.31
2019-03-27T07:05:14.984Z,4.30
2019-03-27T07:07:44.525Z,4.32
2019-03-27T07:10:14.436Z,4.37
2019-03-27T07:12:44.351Z,4.40
2019-03-27T07:15:13.673Z,4.41
2019-03-27T07:17:43.281Z,4.42
2019-03-27T07:20:12.862Z,4.42
2019-03-27T07:22:42.084Z,4.46
2019-03-27T07:25:11.862Z,4.48
2019-03-27T07:27:41.825Z,4.47
2019-03-27T07:30:31.999Z,4.48
2019-03-27T07:33:01.220Z,4.55
2019-03-27T07:35:30.767Z,4.60
2019-03-27T07:38:00.246Z,4.63
2019-03-27T07:40:29.522Z,4.66
2019-03-27T07:42:59.132Z,4.64
2019-03-27T07:45:28.615Z,4.73
2019-03-27T07:47:58.170Z,4.74
2019-03-27T07:50:27.752Z,4.73
2019-03-27T07:52:57.310Z,4.73
2019-03-27T07:55:26.595Z,4.82
2019-03-27T07:57:55.815Z,4.76
2019-03-27T08:00:25.308Z,4.74
2019-03-27T08:02:54.543Z,4.85
2019-03-27T08:05:24.036Z,4.77
2019-03-27T08:07:53.265Z,4.69
2019-03-27T08:10:22.520Z,4.75
2019-03-27T08:12:51.738Z,4.75
2019-03-27T08:15:20.981Z,4.77
2019-03-27T08:17:50.197Z,4.83
2019-03-27T08:20:19.774Z,4.86
2019-03-27T08:22:49.321Z,4.91
2019-03-27T08:25:39.308Z,5.04
2019-03-27T08:28:08.533Z,5.02
2019-03-27T08:30:37.761Z,5.08
2019-03-27T08:33:06.986Z,5.16
2019-03-27T08:35:36.501Z,5.12
2019-03-27T08:38:06.173Z,5.19
2019-03-27T08:40:35.465Z,5.51
2019-03-27T08:43:05.094Z,5.81
2019-03-27T08:45:34.630Z,5.90
2019-03-27T08:48:04.845Z,5.65
2019-03-27T08:50:34.082Z,5.79
2019-03-27T08:53:03.341Z,5.70
2019-03-27T08:55:33.115Z,5.78
2019-03-27T08:58:02.360Z,5.60
2019-03-27T09:00:59.643Z,5.73
2019-03-27T09:03:28.889Z,5.75
2019-03-27T09:05:58.124Z,5.69
2019-03-27T09:08:27.340Z,5.77
2019-03-27T09:10:57.065Z,5.77
2019-03-27T09:13:26.300Z,6.03
2019-03-27T09:15:55.548Z,6.01
2019-03-27T09:18:25.173Z,6.05
2019-03-27T09:20:55.720Z,6.13
2019-03-27T09:23:24.951Z,6.31
2019-03-27T09:25:54.180Z,6.22
2019-03-27T09:28:23.436Z,6.15
2019-03-27T09:30:52.673Z,6.29
2019-03-27T09:33:22.167Z,6.45
2019-03-27T09:35:51.821Z,6.50
2019-03-27T09:38:21.024Z,6.69
2019-03-27T09:40:50.581Z,6.85
2019-03-27T09:43:19.830Z,6.87
2019-03-27T09:45:49.439Z,6.81
2019-03-27T09:48:18.957Z,6.66
2019-03-27T09:50:48.191Z,6.79
2019-03-27T09:53:17.687Z,6.97
2019-03-27T09:55:47.295Z,6.92
2019-03-27T09:58:16.899Z,6.73
2019-03-27T10:01:11.670Z,6.94
2019-03-27T10:03:40.975Z,6.84
2019-03-27T10:06:10.625Z,6.89
2019-03-27T10:08:39.829Z,6.92
2019-03-27T10:11:09.170Z,7.18
2019-03-27T10:13:38.658Z,7.35
2019-03-27T10:16:08.159Z,7.44
2019-03-27T10:18:37.670Z,7.56
2019-03-27T10:21:07.066Z,7.57
2019-03-27T10:23:36.374Z,7.37
2019-03-27T10:26:05.775Z,7.41
2019-03-27T10:28:35.101Z,7.68
2019-03-27T10:31:04.440Z,7.91
2019-03-27T10:33:33.938Z,7.73
2019-03-27T10:36:03.264Z,7.60
2019-03-27T10:38:32.492Z,7.32
2019-03-27T10:41:01.993Z,7.59
2019-03-27T10:43:31.486Z,7.69
2019-03-27T10:46:00.842Z,7.71
2019-03-27T10:48:30.313Z,7.81
2019-03-27T10:50:59.573Z,8.08
2019-03-27T10:53:28.793Z,8.09
2019-03-27T10:55:58.032Z,8.02
2019-03-27T10:58:27.539Z,8.11
2019-03-27T11:00:57.062Z,8.09
2019-03-27T11:03:26.330Z,8.00
2019-03-27T11:05:55.824Z,8.12
2019-03-27T11:08:25.148Z,8.39
2019-03-27T11:10:54.907Z,8.24
2019-03-27T11:13:24.177Z,8.25
2019-03-27T11:15:53.835Z,8.28
2019-03-27T11:18:23.101Z,8.36
2019-03-27T11:20:53.055Z,8.42
2019-03-27T11:23:22.568Z,8.32
2019-03-27T11:25:52.086Z,8.35
2019-03-27T11:28:21.677Z,8.27
2019-03-27T11:30:50.965Z,8.31
2019-03-27T11:33:20.446Z,8.27
2019-03-27T11:35:51.720Z,8.17
2019-03-27T11:38:20.651Z,8.20
2019-03-27T11:40:49.870Z,8.32
2019-03-27T11:43:19.137Z,8.48
2019-03-27T11:45:48.942Z,8.69
2019-03-27T11:48:18.574Z,8.86
2019-03-27T11:50:47.812Z,8.84
2019-03-27T11:53:17.070Z,9.00
2019-03-27T11:55:46.360Z,8.88
2019-03-27T11:58:16.184Z,8.76
2019-03-27T12:00:54.598Z,8.51
2019-03-27T12:03:16.820Z,8.56
2019-03-27T12:05:46.308Z,8.54
2019-03-27T12:08:15.577Z,8.49
2019-03-27T12:10:44.840Z,8.78
2019-03-27T12:13:14.071Z,9.05
2019-03-27T12:15:44.546Z,8.76
2019-03-27T12:18:16.839Z,8.98
2019-03-27T12:20:58.302Z,9.06
2019-03-27T12:23:17.654Z,9.14
2019-03-27T12:25:47.112Z,8.74
2019-03-27T12:28:16.668Z,8.85
2019-03-27T12:30:46.168Z,8.90
2019-03-27T12:33:15.486Z,8.87
2019-03-27T12:35:44.780Z,8.93
2019-03-27T12:38:14.023Z,8.96
2019-03-27T12:40:43.247Z,8.75
2019-03-27T12:43:12.575Z,8.69
2019-03-27T12:45:42.055Z,8.78
2019-03-27T12:48:11.462Z,8.87
2019-03-27T12:50:44.057Z,8.70
2019-03-27T12:53:12.049Z,8.86
2019-03-27T12:55:41.407Z,9.01
2019-03-27T12:58:11.890Z,8.96
2019-03-27T13:00:41.371Z,8.92
2019-03-27T13:03:10.678Z,8.96
2019-03-27T13:05:39.956Z,8.88
2019-03-27T13:08:09.467Z,9.11
2019-03-27T13:10:38.691Z,9.31
2019-03-27T13:13:11.901Z,9.47
2019-03-27T13:15:41.515Z,9.55
2019-03-27T13:18:11.236Z,9.55
2019-03-27T13:20:40.470Z,9.52
2019-03-27T13:23:10.017Z,9.45
2019-03-27T13:25:39.738Z,9.63
2019-03-27T13:28:08.970Z,9.71
2019-03-27T13:30:38.448Z,9.86
2019-03-27T13:33:07.997Z,10.13
2019-03-27T13:35:37.494Z,10.37
2019-03-27T13:38:06.730Z,10.37
2019-03-27T13:40:35.934Z,9.85
2019-03-27T13:43:05.583Z,9.71
2019-03-27T13:45:34.815Z,9.50
2019-03-27T13:48:04.445Z,9.63
2019-03-27T13:50:34.014Z,9.72
2019-03-27T13:53:03.518Z,9.67
2019-03-27T13:55:35.132Z,9.54
2019-03-27T13:58:04.435Z,9.51
2019-03-27T14:00:33.677Z,9.37
2019-03-27T14:03:02.974Z,9.36
2019-03-27T14:05:32.204Z,9.42
2019-03-27T14:08:02.003Z,9.37
2019-03-27T14:10:31.285Z,9.42
2019-03-27T14:13:00.576Z,9.64
2019-03-27T14:15:29.874Z,9.64
2019-03-27T14:17:59.601Z,9.81
2019-03-27T14:20:28.830Z,9.80
2019-03-27T14:22:58.050Z,9.79
2019-03-27T14:25:27.606Z,9.74
2019-03-27T14:27:56.861Z,9.74
2019-03-27T14:30:49.454Z,9.76
2019-03-27T14:33:18.861Z,9.34
2019-03-27T14:35:48.180Z,9.34
2019-03-27T14:38:17.687Z,9.30
2019-03-27T14:40:46.930Z,10.33
2019-03-27T14:43:16.145Z,10.27
2019-03-27T14:45:45.826Z,10.27
2019-03-27T14:48:15.618Z,10.13
2019-03-27T14:50:45.131Z,10.29
2019-03-27T14:53:14.747Z,10.32
2019-03-27T14:55:44.325Z,10.49
2019-03-27T14:58:13.791Z,10.54
2019-03-27T15:00:43.018Z,10.51
2019-03-27T15:03:12.242Z,10.21
2019-03-27T15:05:41.743Z,10.11
2019-03-27T15:08:11.501Z,10.46
2019-03-27T15:10:41.263Z,10.63
2019-03-27T15:13:15.486Z,10.63
2019-03-27T15:15:44.174Z,10.44
2019-03-27T15:18:13.685Z,10.24
2019-03-27T15:20:42.919Z,10.03
2019-03-27T15:23:12.140Z,9.88
2019-03-27T15:25:41.413Z,9.91
2019-03-27T15:28:10.958Z,9.91
2019-03-27T15:30:40.473Z,9.75
2019-03-27T15:33:09.701Z,9.81
2019-03-27T15:35:38.945Z,9.93
2019-03-27T15:38:09.565Z,9.76
2019-03-27T15:40:44.509Z,9.76
2019-03-27T15:43:14.051Z,9.54
2019-03-27T15:45:44.241Z,9.42
2019-03-27T15:48:13.462Z,9.49
2019-03-27T15:50:55.278Z,9.69
2019-03-27T15:53:14.351Z,9.72
2019-03-27T15:55:43.760Z,9.66
2019-03-27T15:58:13.262Z,9.57
2019-03-27T16:00:42.834Z,9.62
2019-03-27T16:03:12.374Z,9.58
2019-03-27T16:05:41.714Z,9.63
2019-03-27T16:08:11.225Z,9.51
2019-03-27T16:10:40.800Z,9.39
2019-03-27T16:13:10.133Z,9.48
2019-03-27T16:15:39.372Z,9.36
2019-03-27T16:18:08.675Z,9.33
2019-03-27T16:20:38.268Z,9.33
2019-03-27T16:23:07.817Z,9.22
2019-03-27T16:25:37.395Z,9.22
2019-03-27T16:28:06.968Z,9.17
2019-03-27T16:30:36.191Z,9.13
2019-03-27T16:33:05.539Z,9.07
2019-03-27T16:35:35.099Z,9.07
2019-03-27T16:38:04.454Z,8.98
2019-03-27T16:40:45.383Z,9.02
2019-03-27T16:43:14.770Z,8.96
2019-03-27T16:45:44.010Z,9.04
2019-03-27T16:48:13.525Z,8.91
2019-03-27T16:50:43.106Z,8.84
2019-03-27T16:53:12.434Z,8.86
2019-03-27T16:55:42.318Z,8.83
2019-03-27T16:58:11.807Z,8.91
2019-03-27T17:00:41.137Z,8.95
2019-03-27T17:03:10.386Z,8.94
2019-03-27T17:05:53.007Z,8.92
2019-03-27T17:08:11.212Z,8.92
2019-03-27T17:10:40.512Z,8.88
2019-03-27T17:13:10.165Z,8.87
2019-03-27T17:15:39.526Z,8.86
2019-03-27T17:18:08.959Z,8.86
2019-03-27T17:20:38.299Z,8.69
2019-03-27T17:23:18.052Z,8.69
2019-03-27T17:25:39.047Z,8.80
2019-03-27T17:28:08.531Z,8.79
2019-03-27T17:30:37.895Z,8.75
2019-03-27T17:33:10.162Z,8.80
2019-03-27T17:35:39.496Z,8.71
2019-03-27T17:38:10.927Z,8.71
2019-03-27T17:40:39.841Z,8.76
2019-03-27T17:43:09.116Z,8.89
2019-03-27T17:45:38.451Z,8.78
2019-03-27T17:48:12.414Z,8.73
2019-03-27T17:50:41.899Z,8.73
2019-03-27T17:53:11.414Z,8.69
2019-03-27T17:55:40.678Z,8.51
2019-03-27T17:58:09.926Z,8.48
2019-03-27T18:00:44.694Z,8.55
2019-03-27T18:03:14.130Z,8.51
2019-03-27T18:05:43.551Z,8.58
2019-03-27T18:08:13.143Z,8.61
2019-03-27T18:10:42.452Z,8.59
2019-03-27T18:13:11.898Z,8.61
2019-03-27T18:15:41.196Z,8.55
2019-03-27T18:18:10.453Z,8.58
2019-03-27T18:20:40.037Z,8.51
2019-03-27T18:23:09.787Z,8.45
2019-03-27T18:25:39.313Z,8.50
2019-03-27T18:28:08.625Z,8.49
2019-03-27T18:30:37.894Z,8.39
2019-03-27T18:33:07.482Z,8.34
2019-03-27T18:35:36.783Z,8.34
2019-03-27T18:38:06.426Z,8.35
2019-03-27T18:40:36.211Z,8.34
2019-03-27T18:43:05.575Z,8.36
2019-03-27T18:45:35.155Z,8.36
2019-03-27T18:48:04.537Z,8.33
2019-03-27T18:50:34.041Z,8.30
2019-03-27T18:53:03.310Z,8.28
2019-03-27T18:55:32.559Z,8.27
2019-03-27T18:58:01.880Z,8.29
2019-03-27T19:00:31.293Z,8.23
2019-03-27T19:03:00.803Z,8.22
2019-03-27T19:05:30.322Z,8.25
2019-03-27T19:07:59.858Z,8.20
2019-03-27T19:10:29.362Z,8.26
2019-03-27T19:12:58.766Z,8.22
2019-03-27T19:15:28.301Z,8.23
2019-03-27T19:17:57.587Z,8.26
2019-03-27T19:20:26.807Z,8.16
2019-03-27T19:22:56.397Z,8.19
2019-03-27T19:25:25.894Z,8.23
2019-03-27T19:27:55.164Z,8.29
2019-03-27T19:30:24.676Z,8.27
2019-03-27T19:32:53.904Z,8.17
2019-03-27T19:35:23.158Z,8.15
2019-03-27T19:37:52.664Z,8.19
2019-03-27T19:40:21.914Z,8.16
2019-03-27T19:42:51.128Z,8.22
2019-03-27T19:45:20.552Z,8.24
2019-03-27T19:47:50.078Z,8.26
2019-03-27T19:50:20.276Z,8.20
2019-03-27T19:52:49.495Z,8.16
2019-03-27T19:55:19.002Z,8.15
2019-03-27T19:57:48.545Z,8.15
2019-03-27T20:00:17.945Z,8.15
2019-03-27T20:02:47.636Z,8.14
2019-03-27T20:05:16.866Z,8.20
2019-03-27T20:07:46.125Z,8.20
2019-03-27T20:10:15.792Z,8.17
2019-03-27T20:12:45.080Z,8.22
2019-03-27T20:15:14.700Z,8.20
2019-03-27T20:17:44.081Z,8.14
2019-03-27T20:20:13.668Z,8.19
2019-03-27T20:22:43.133Z,8.35
2019-03-27T20:25:14.961Z,8.31
2019-03-27T20:27:44.383Z,8.31
2019-03-27T20:30:17.376Z,8.35
2019-03-27T20:32:49.717Z,8.50
2019-03-27T20:35:18.982Z,8.55
2019-03-27T20:37:48.462Z,8.43
2019-03-27T20:40:19.756Z,8.43
2019-03-27T20:42:52.116Z,8.37
2019-03-27T20:45:20.110Z,8.28
2019-03-27T20:47:49.840Z,8.28
2019-03-27T20:50:19.453Z,8.40
2019-03-27T20:52:48.723Z,8.28
2019-03-27T20:55:29.651Z,8.20
2019-03-27T20:57:48.957Z,8.20
2019-03-27T21:00:18.718Z,8.29
2019-03-27T21:02:47.940Z,8.28
2019-03-27T21:05:17.300Z,8.28
2019-03-27T21:07:46.956Z,8.27
2019-03-27T21:10:16.640Z,8.18
2019-03-27T21:12:46.089Z,8.20
2019-03-27T21:15:15.579Z,8.29
2019-03-27T21:17:44.813Z,8.15
2019-03-27T21:20:14.251Z,8.16
2019-03-27T21:22:43.564Z,8.14
2019-03-27T21:25:12.916Z,8.05
2019-03-27T21:27:42.141Z,8.04
2019-03-27T21:30:12.297Z,8.04
2019-03-27T21:32:41.671Z,8.09
2019-03-27T21:35:11.001Z,8.13
2019-03-27T21:37:41.917Z,8.08
2019-03-27T21:40:12.250Z,8.08
2019-03-27T21:42:41.784Z,8.07
2019-03-27T21:45:11.459Z,8.06
2019-03-27T21:47:41.025Z,8.02
2019-03-27T21:50:11.237Z,8.09
2019-03-27T21:52:40.521Z,8.03
2019-03-27T21:55:21.936Z,8.12
2019-03-27T21:57:41.390Z,8.11
2019-03-27T22:00:11.372Z,8.24
2019-03-27T22:02:40.676Z,8.28
2019-03-27T22:05:10.296Z,8.40
2019-03-27T22:07:39.526Z,8.39
2019-03-27T22:10:09.127Z,8.17
2019-03-27T22:12:38.840Z,8.02
2019-03-27T22:15:09.395Z,8.12
2019-03-27T22:17:39.090Z,8.12
2019-03-27T22:20:09.153Z,8.14
2019-03-27T22:22:38.778Z,8.02
2019-03-27T22:25:10.434Z,8.01
2019-03-27T22:27:39.790Z,7.90
2019-03-27T22:30:10.273Z,7.81
2019-03-27T22:32:39.627Z,7.69
2019-03-27T22:35:09.134Z,7.67
2019-03-27T22:37:39.693Z,7.73
2019-03-27T22:40:09.250Z,7.64
2019-03-27T22:42:38.686Z,7.68
2019-03-27T22:45:08.498Z,7.57
2019-03-27T22:47:37.845Z,7.64
2019-03-27T22:50:08.557Z,7.61
2019-03-27T22:52:42.067Z,7.64
2019-03-27T22:55:11.408Z,7.60
2019-03-27T22:57:40.960Z,7.66
2019-03-27T23:00:11.526Z,7.71
2019-03-27T23:02:41.156Z,7.61
2019-03-27T23:05:10.680Z,7.51
2019-03-27T23:07:40.389Z,7.49
2019-03-27T23:10:10.040Z,7.43
2019-03-27T23:12:39.676Z,7.44
2019-03-27T23:15:10.795Z,7.46
2019-03-27T23:17:40.079Z,7.44
2019-03-27T23:20:09.759Z,7.46
2019-03-27T23:22:39.143Z,7.45
2019-03-27T23:25:08.839Z,7.44
2019-03-27T23:27:38.109Z,7.40
2019-03-27T23:30:09.136Z,7.29
2019-03-27T23:32:38.458Z,7.26
2019-03-27T23:35:08.161Z,7.24
2019-03-27T23:37:37.572Z,7.28
2019-03-27T23:40:07.148Z,7.26
2019-03-27T23:42:36.904Z,7.22
2019-03-27T23:45:08.228Z,6.77
2019-03-27T23:47:37.594Z,7.18
2019-03-27T23:50:07.550Z,7.15
2019-03-27T23:52:37.112Z,7.15
2019-03-27T23:55:06.719Z,7.21
2019-03-27T23:57:36.279Z,7.20
